Startpagina
Satellietbeelden 15-daagse weersverwachtingenKlimaatWeer op zee Cyclonen Bliksem VliegveldenFAQ Nieuwsbrief Over ons
Weer : Europa Afrika Noord-Amerika Zuid-Amerika Azië Australië-Oceanië Overige
Talen Contact

Oostende, België

breedte: 51-12N, lengte: 002-52E, hoogte: 4 m


METAR: EBOS 191450Z 28014KT 9999 FEW024 09/03 Q1016 NOSIG
TAF: EBOS 191110Z 1912/2018 30015KT 9999 SCT020 SCT040 TEMPO 2009/2016 27025G38KT

Tijdstip: 16:05 (15:05 UTC)

Actueel weer

Dit bericht is 15 minuten geleden gemaakt, om 14:50 UTC
Wind 14 kt uit het westen
Temperatuur 9°C
Vochtigheid 66%
Druk 1016 hPa
Zicht 10 km of meer
Weinig wolken op 2400 ft

Eenheden wijzigen

Verwachting

Dit bericht is 3 uur en het 55 minuten geleden gemaakt, om 11:10 UTC
Verwachting geldig van 19 om 12 UTC tot 20 om 18 UTC
Wind 15 kt uit het westnoordwesten
Zicht 10 km of meer
Verspreide wolken op 2000 ft
Verspreide wolken op 4000 ft
Tijdelijke
van 20 om 09 UTC tot 20 om 16 UTC
Wind 25 kt uit het westen met uitschieters tot 38 kt
Voor de informatie op deze site geldt een disclaimer
Weer : Europa Afrika Noord-Amerika Zuid-Amerika Azië Australië-Oceanië Overige
Satellietbeelden 15-daagse weersverwachtingenKlimaatWeer op zee Cyclonen Bliksem VliegveldenFAQ Talen Contact Nieuwsbrief Over ons